EDXW Airport Information

Runway Information
Runway 06 Length 5564 ft width 148 ft
Elevation 27 ft Threshold 0 ft Heading 60
Runway 24 Length 5564 ft Width 148 ft
Elevation 51 ft Threshold 0 ft Heading 240
Runway 14 Length 6955 ft width 148 ft
Elevation 32 ft Threshold 0 ft Heading 144
Runway 32 Length 6955 ft Width 148 ft
Elevation 31 ft Threshold 0 ft Heading 324
Airport Frequencies
Type INFO Name BREMEN INF Frequency 125.1 MHZ
Type RDR Name BREMEN RAD Frequency 136.225 MHZ
Type TWR Name SYLT TWR Frequency 119.75 MHZ
Airport Navaids
Type NDB Name Sylt Frequency 387 KHZ
Type DME Name Westerland Frequency 111500 KHZ
Airport Weather Information & NOTAM
ADDS - METARS form results

(0228 UTC 23 January 2022)
Data provider http://aviationweather.gov/metar/data/
 
METAR text: EDXW 230220Z AUTO 30011KT 6000 // FEW005/// BKN007/// OVC011/// 06/06 Q1031
Conditions at: EDXW (WESTERLAND/SYLT , DE) observed 0220 UTC 23 January 2022
Temperature: 6.0°C (43°F)
Dewpoint: 6.0°C (43°F) [RH = 100%]
Pressure (altimeter): 30.44 inches Hg (1031.0 mb)
Winds: from the WNW (300 degrees) at 13 MPH (11 knots; 5.7 m/s)
Visibility: 4 miles ( 6 km)
Ceiling: 700 feet AGL
Clouds: few clouds at 500 feet AGL
broken clouds at 700 feet AGL
overcast cloud deck at 1100 feet AGL
Weather: no significant weather observed at this time

METAR text: EDXW 230150Z AUTO 30012KT 8000 // FEW006/// BKN009/// OVC011/// 06/06 Q1031
Conditions at: EDXW (WESTERLAND/SYLT , DE) observed 0150 UTC 23 January 2022
Temperature: 6.0°C (43°F)
Dewpoint: 6.0°C (43°F) [RH = 100%]
Pressure (altimeter): 30.44 inches Hg (1031.0 mb)
Winds: from the WNW (300 degrees) at 14 MPH (12 knots; 6.2 m/s)
Visibility: 5 miles ( 8 km)
Ceiling: 900 feet AGL
Clouds: few clouds at 600 feet AGL
broken clouds at 900 feet AGL
overcast cloud deck at 1100 feet AGL
Weather: no significant weather observed at this time